AXB5501 VOBL-VOML
Flight info
| Callsign | AXB5501 |
|---|---|
| Flight time | 0h 45m |
| Altitude | 28000 |
| Route | PEXEG8A PEXEG W81 MML |
| Aircraft | B38M/M-SDE1FGHILORVWXY/HB1 |
Departure
| Time | 2026-05-07 07:42 |
|---|---|
| Airport | Kempegowda International Airport Bengaluru (VOBL) |
Arrival
| Time | 2026-05-07 08:27 |
|---|---|
| Airport | Mangaluru International Airport (VOML) |
| Time | Latitude | Longitude | Altitude | Speed | Heading |
|---|---|---|---|---|---|
| 2026-05-07 07:17 | 13.20082 | 77.72023 | 3018 ft | 0 kts | 234° |
| 2026-05-07 07:24 | 13.20088 | 77.72031 | 3042 ft | 3 kts | 235° |
| 2026-05-07 07:25 | 13.20109 | 77.72067 | 3016 ft | 3 kts | 244° |
| 2026-05-07 07:25 | 13.20117 | 77.72086 | 3018 ft | 3 kts | 256° |
| 2026-05-07 07:25 | 13.20118 | 77.72104 | 3014 ft | 3 kts | 291° |
| 2026-05-07 07:26 | 13.20114 | 77.72112 | 3016 ft | 2 kts | 355° |
| 2026-05-07 07:26 | 13.20112 | 77.72112 | 3019 ft | 1 kts | 0° |
| 2026-05-07 07:31 | 13.20121 | 77.72112 | 3014 ft | 2 kts | 0° |
| 2026-05-07 07:31 | 13.20144 | 77.72112 | 3014 ft | 4 kts | 0° |
| 2026-05-07 07:32 | 13.20182 | 77.72112 | 3016 ft | 6 kts | 0° |
| 2026-05-07 07:32 | 13.20234 | 77.72113 | 3014 ft | 8 kts | 0° |
| 2026-05-07 07:32 | 13.20300 | 77.72113 | 3014 ft | 10 kts | 0° |
| 2026-05-07 07:32 | 13.20380 | 77.72113 | 3014 ft | 12 kts | 0° |
| 2026-05-07 07:33 | 13.20436 | 77.72060 | 3014 ft | 13 kts | 272° |
| 2026-05-07 07:33 | 13.20437 | 77.71961 | 3014 ft | 15 kts | 270° |
| 2026-05-07 07:33 | 13.20438 | 77.71849 | 3014 ft | 17 kts | 270° |
| 2026-05-07 07:33 | 13.20439 | 77.71723 | 3014 ft | 18 kts | 270° |
| 2026-05-07 07:34 | 13.20440 | 77.71586 | 3014 ft | 20 kts | 270° |
| 2026-05-07 07:34 | 13.20441 | 77.71448 | 3014 ft | 15 kts | 270° |
| 2026-05-07 07:34 | 13.20442 | 77.71362 | 3014 ft | 6 kts | 271° |
| 2026-05-07 07:34 | 13.20442 | 77.71354 | 3014 ft | 2 kts | 271° |
| 2026-05-07 07:35 | 13.20442 | 77.71331 | 3014 ft | 4 kts | 271° |
| 2026-05-07 07:35 | 13.20447 | 77.71294 | 3017 ft | 6 kts | 294° |
| 2026-05-07 07:35 | 13.20487 | 77.71278 | 3013 ft | 7 kts | 0° |
| 2026-05-07 07:35 | 13.20523 | 77.71247 | 3013 ft | 8 kts | 285° |
| 2026-05-07 07:36 | 13.20526 | 77.71184 | 3013 ft | 10 kts | 270° |
| 2026-05-07 07:36 | 13.20527 | 77.71107 | 3013 ft | 12 kts | 270° |
| 2026-05-07 07:36 | 13.20528 | 77.70993 | 3013 ft | 20 kts | 272° |
| 2026-05-07 07:36 | 13.20529 | 77.70819 | 3013 ft | 27 kts | 270° |
| 2026-05-07 07:37 | 13.20531 | 77.70618 | 3014 ft | 29 kts | 270° |
| 2026-05-07 07:37 | 13.20532 | 77.70409 | 3014 ft | 30 kts | 270° |
| 2026-05-07 07:37 | 13.20534 | 77.70192 | 3014 ft | 31 kts | 270° |
| 2026-05-07 07:37 | 13.20536 | 77.69967 | 3014 ft | 32 kts | 271° |
| 2026-05-07 07:38 | 13.20538 | 77.69749 | 3014 ft | 30 kts | 270° |
| 2026-05-07 07:38 | 13.20540 | 77.69530 | 3013 ft | 31 kts | 270° |
| 2026-05-07 07:38 | 13.20542 | 77.69308 | 3013 ft | 17 kts | 271° |
| 2026-05-07 07:38 | 13.20543 | 77.69287 | 3013 ft | 3 kts | 271° |
| 2026-05-07 07:39 | 13.20543 | 77.69258 | 3013 ft | 5 kts | 271° |
| 2026-05-07 07:39 | 13.20549 | 77.69216 | 3017 ft | 6 kts | 301° |
| 2026-05-07 07:39 | 13.20592 | 77.69203 | 3013 ft | 7 kts | 2° |
| 2026-05-07 07:39 | 13.20596 | 77.69203 | 3014 ft | 0 kts | 2° |
| 2026-05-07 07:40 | 13.20599 | 77.69203 | 3014 ft | 1 kts | 2° |
| 2026-05-07 07:41 | 13.20615 | 77.69204 | 3014 ft | 3 kts | 2° |
| 2026-05-07 07:41 | 13.20665 | 77.69208 | 3014 ft | 13 kts | 16° |
| 2026-05-07 07:41 | 13.20712 | 77.69353 | 3014 ft | 50 kts | 89° |
| 2026-05-07 07:41 | 13.20710 | 77.70006 | 3013 ft | 129 kts | 90° |
| 2026-05-07 07:42 | 13.20696 | 77.71144 | 3213 ft | 175 kts | 91° |
| 2026-05-07 07:42 | 13.20689 | 77.72387 | 4139 ft | 178 kts | 88° |
| 2026-05-07 07:42 | 13.20902 | 77.73711 | 4751 ft | 197 kts | 70° |
| 2026-05-07 07:42 | 13.21659 | 77.74888 | 5426 ft | 197 kts | 49° |
| 2026-05-07 07:43 | 13.22565 | 77.75931 | 6229 ft | 195 kts | 49° |
| 2026-05-07 07:43 | 13.23417 | 77.77100 | 6262 ft | 213 kts | 59° |
| 2026-05-07 07:43 | 13.24405 | 77.78375 | 6329 ft | 245 kts | 38° |
| 2026-05-07 07:43 | 13.26075 | 77.78964 | 6601 ft | 269 kts | 1° |
| 2026-05-07 07:44 | 13.27880 | 77.78389 | 7246 ft | 279 kts | 325° |
| 2026-05-07 07:44 | 13.29109 | 77.76850 | 8009 ft | 288 kts | 294° |
| 2026-05-07 07:44 | 13.29427 | 77.75512 | 8367 ft | 297 kts | 272° |
| 2026-05-07 07:44 | 13.29034 | 77.73450 | 9240 ft | 295 kts | 251° |
| 2026-05-07 07:45 | 13.28445 | 77.71405 | 9939 ft | 305 kts | 260° |
| 2026-05-07 07:45 | 13.28204 | 77.69206 | 10472 ft | 316 kts | 264° |
| 2026-05-07 07:45 | 13.27954 | 77.66900 | 10884 ft | 334 kts | 263° |
| 2026-05-07 07:45 | 13.27671 | 77.64470 | 11252 ft | 351 kts | 263° |
| 2026-05-07 07:46 | 13.27259 | 77.61102 | 11902 ft | 365 kts | 263° |
| 2026-05-07 07:46 | 13.27041 | 77.59356 | 12460 ft | 365 kts | 263° |
| 2026-05-07 07:46 | 13.26716 | 77.56763 | 13230 ft | 369 kts | 263° |
| 2026-05-07 07:46 | 13.26386 | 77.54134 | 13980 ft | 372 kts | 263° |
| 2026-05-07 07:47 | 13.26054 | 77.51494 | 14689 ft | 375 kts | 263° |
| 2026-05-07 07:47 | 13.25719 | 77.48834 | 15422 ft | 377 kts | 263° |
| 2026-05-07 07:47 | 13.25382 | 77.46161 | 16138 ft | 379 kts | 263° |
| 2026-05-07 07:47 | 13.25044 | 77.43472 | 16809 ft | 381 kts | 263° |
| 2026-05-07 07:48 | 13.24702 | 77.40762 | 17487 ft | 383 kts | 263° |
| 2026-05-07 07:48 | 13.24359 | 77.38044 | 18127 ft | 386 kts | 263° |
| 2026-05-07 07:48 | 13.24011 | 77.35295 | 18632 ft | 390 kts | 263° |
| 2026-05-07 07:48 | 13.23661 | 77.32527 | 19137 ft | 393 kts | 263° |
| 2026-05-07 07:49 | 13.23308 | 77.29734 | 19625 ft | 396 kts | 263° |
| 2026-05-07 07:49 | 13.22951 | 77.26917 | 20106 ft | 401 kts | 263° |
| 2026-05-07 07:49 | 13.22591 | 77.24075 | 20772 ft | 402 kts | 263° |
| 2026-05-07 07:49 | 13.22228 | 77.21218 | 21196 ft | 407 kts | 263° |
| 2026-05-07 07:50 | 13.21858 | 77.18309 | 21504 ft | 413 kts | 263° |
| 2026-05-07 07:50 | 13.21492 | 77.15429 | 22055 ft | 414 kts | 263° |
| 2026-05-07 07:50 | 13.21112 | 77.12439 | 22384 ft | 420 kts | 263° |
| 2026-05-07 07:50 | 13.20732 | 77.09460 | 22862 ft | 421 kts | 263° |
| 2026-05-07 07:51 | 13.20356 | 77.06501 | 23257 ft | 426 kts | 263° |
| 2026-05-07 07:51 | 13.19969 | 77.03472 | 23621 ft | 429 kts | 263° |
| 2026-05-07 07:51 | 13.19581 | 77.00432 | 23998 ft | 431 kts | 263° |
| 2026-05-07 07:51 | 13.19189 | 76.97372 | 24320 ft | 434 kts | 263° |
| 2026-05-07 07:52 | 13.18794 | 76.94286 | 24682 ft | 436 kts | 263° |
| 2026-05-07 07:52 | 13.18398 | 76.91191 | 25035 ft | 439 kts | 263° |
| 2026-05-07 07:52 | 13.17999 | 76.88083 | 25366 ft | 441 kts | 263° |
| 2026-05-07 07:52 | 13.17597 | 76.84951 | 25722 ft | 443 kts | 263° |
| 2026-05-07 07:53 | 13.17194 | 76.81807 | 26063 ft | 446 kts | 263° |
| 2026-05-07 07:53 | 13.16786 | 76.78642 | 26405 ft | 449 kts | 263° |
| 2026-05-07 07:53 | 13.16377 | 76.75462 | 26738 ft | 451 kts | 263° |
| 2026-05-07 07:53 | 13.15965 | 76.72260 | 27061 ft | 454 kts | 263° |
| 2026-05-07 07:54 | 13.15550 | 76.69041 | 27389 ft | 456 kts | 263° |
| 2026-05-07 07:54 | 13.15132 | 76.65804 | 27705 ft | 459 kts | 263° |
| 2026-05-07 07:54 | 13.14711 | 76.62549 | 27919 ft | 463 kts | 263° |
| 2026-05-07 07:54 | 13.14284 | 76.59244 | 27918 ft | 471 kts | 263° |
| 2026-05-07 07:55 | 13.13848 | 76.55886 | 27915 ft | 478 kts | 263° |
| 2026-05-07 07:55 | 13.13407 | 76.52483 | 27919 ft | 484 kts | 263° |
| 2026-05-07 07:55 | 13.12961 | 76.49042 | 27926 ft | 489 kts | 263° |
| 2026-05-07 07:55 | 13.12510 | 76.45578 | 27922 ft | 490 kts | 263° |
| 2026-05-07 07:56 | 13.12059 | 76.42110 | 27919 ft | 490 kts | 263° |
| 2026-05-07 07:56 | 13.11609 | 76.38647 | 27925 ft | 490 kts | 263° |
| 2026-05-07 07:56 | 13.11158 | 76.35185 | 27933 ft | 490 kts | 263° |
| 2026-05-07 07:56 | 13.10705 | 76.31719 | 27918 ft | 490 kts | 263° |
| 2026-05-07 07:57 | 13.10253 | 76.28254 | 27918 ft | 490 kts | 263° |
| 2026-05-07 07:57 | 13.09800 | 76.24792 | 27923 ft | 490 kts | 262° |
| 2026-05-07 07:57 | 13.09348 | 76.21334 | 27924 ft | 490 kts | 262° |
| 2026-05-07 07:57 | 13.08894 | 76.17869 | 27922 ft | 490 kts | 262° |
| 2026-05-07 07:58 | 13.08440 | 76.14408 | 27916 ft | 490 kts | 262° |
| 2026-05-07 07:58 | 13.07985 | 76.10944 | 27911 ft | 490 kts | 262° |
| 2026-05-07 07:58 | 13.07531 | 76.07486 | 27920 ft | 490 kts | 262° |
| 2026-05-07 07:58 | 13.07111 | 76.04016 | 27922 ft | 490 kts | 264° |
| 2026-05-07 07:59 | 13.06774 | 76.00539 | 27914 ft | 490 kts | 264° |
| 2026-05-07 07:59 | 13.06428 | 75.97060 | 27927 ft | 490 kts | 264° |
| 2026-05-07 07:59 | 13.06074 | 75.93582 | 27928 ft | 490 kts | 264° |
| 2026-05-07 07:59 | 13.05718 | 75.90106 | 27915 ft | 490 kts | 264° |
| 2026-05-07 08:00 | 13.05363 | 75.86630 | 27914 ft | 490 kts | 264° |
| 2026-05-07 08:00 | 13.05008 | 75.83155 | 27922 ft | 491 kts | 264° |
| 2026-05-07 08:00 | 13.04652 | 75.79673 | 27901 ft | 487 kts | 264° |
| 2026-05-07 08:00 | 13.04309 | 75.76331 | 27867 ft | 469 kts | 264° |
| 2026-05-07 08:01 | 13.03969 | 75.73026 | 27830 ft | 451 kts | 264° |
| 2026-05-07 08:01 | 13.03651 | 75.69926 | 27790 ft | 435 kts | 264° |
| 2026-05-07 08:01 | 13.03339 | 75.66892 | 27742 ft | 421 kts | 264° |
| 2026-05-07 08:01 | 13.03035 | 75.63940 | 27680 ft | 415 kts | 264° |
| 2026-05-07 08:02 | 13.02733 | 75.61003 | 27568 ft | 413 kts | 264° |
| 2026-05-07 08:02 | 13.02430 | 75.58077 | 27462 ft | 412 kts | 264° |
| 2026-05-07 08:02 | 13.02129 | 75.55162 | 27363 ft | 411 kts | 265° |
| 2026-05-07 08:02 | 13.01827 | 75.52249 | 27225 ft | 411 kts | 265° |
| 2026-05-07 08:03 | 13.01525 | 75.49337 | 26962 ft | 409 kts | 265° |
| 2026-05-07 08:03 | 13.01225 | 75.46443 | 26711 ft | 407 kts | 265° |
| 2026-05-07 08:03 | 13.00926 | 75.43562 | 26471 ft | 406 kts | 265° |
| 2026-05-07 08:03 | 13.00627 | 75.40689 | 26232 ft | 405 kts | 265° |
| 2026-05-07 08:04 | 13.00329 | 75.37822 | 25995 ft | 404 kts | 265° |
| 2026-05-07 08:04 | 13.00036 | 75.34962 | 25758 ft | 402 kts | 265° |
| 2026-05-07 08:04 | 12.99744 | 75.32120 | 25521 ft | 401 kts | 265° |
| 2026-05-07 08:04 | 12.99450 | 75.29290 | 25293 ft | 395 kts | 265° |
| 2026-05-07 08:05 | 12.99161 | 75.26530 | 25077 ft | 387 kts | 265° |
| 2026-05-07 08:05 | 12.98878 | 75.23817 | 24858 ft | 379 kts | 265° |
| 2026-05-07 08:05 | 12.98600 | 75.21162 | 24639 ft | 371 kts | 265° |
| 2026-05-07 08:05 | 12.98326 | 75.18538 | 24183 ft | 370 kts | 265° |
| 2026-05-07 08:06 | 12.98054 | 75.15943 | 23747 ft | 362 kts | 265° |
| 2026-05-07 08:06 | 12.97789 | 75.13411 | 23296 ft | 354 kts | 265° |
| 2026-05-07 08:06 | 12.97528 | 75.10922 | 22778 ft | 347 kts | 265° |
| 2026-05-07 08:06 | 12.97272 | 75.08488 | 22274 ft | 341 kts | 265° |
| 2026-05-07 08:07 | 12.97020 | 75.06091 | 21775 ft | 335 kts | 265° |
| 2026-05-07 08:07 | 12.96773 | 75.03740 | 21285 ft | 329 kts | 265° |
| 2026-05-07 08:07 | 12.96531 | 75.01435 | 20809 ft | 323 kts | 265° |
| 2026-05-07 08:07 | 12.96292 | 74.99165 | 20342 ft | 317 kts | 265° |
| 2026-05-07 08:08 | 12.96058 | 74.96937 | 19888 ft | 312 kts | 264° |
| 2026-05-07 08:08 | 12.95823 | 74.94740 | 19428 ft | 307 kts | 264° |
| 2026-05-07 08:08 | 12.95587 | 74.92581 | 18989 ft | 302 kts | 264° |
| 2026-05-07 08:08 | 12.95358 | 74.90455 | 18551 ft | 298 kts | 264° |
| 2026-05-07 08:09 | 12.95139 | 74.88365 | 18131 ft | 292 kts | 264° |
| 2026-05-07 08:09 | 12.94784 | 74.86328 | 17609 ft | 289 kts | 252° |
| 2026-05-07 08:09 | 12.93874 | 74.84512 | 17118 ft | 285 kts | 234° |
| 2026-05-07 08:09 | 12.92694 | 74.82877 | 16612 ft | 288 kts | 233° |
| 2026-05-07 08:10 | 12.91504 | 74.81240 | 16164 ft | 286 kts | 233° |
| 2026-05-07 08:10 | 12.90336 | 74.79622 | 15676 ft | 285 kts | 233° |
| 2026-05-07 08:10 | 12.89145 | 74.77961 | 15187 ft | 285 kts | 233° |
| 2026-05-07 08:10 | 12.87803 | 74.76517 | 14655 ft | 285 kts | 211° |
| 2026-05-07 08:11 | 12.85955 | 74.75919 | 14143 ft | 279 kts | 177° |
| 2026-05-07 08:11 | 12.84144 | 74.76435 | 13705 ft | 269 kts | 144° |
| 2026-05-07 08:11 | 12.82963 | 74.77853 | 13207 ft | 262 kts | 110° |
| 2026-05-07 08:11 | 12.82783 | 74.79675 | 12716 ft | 260 kts | 77° |
| 2026-05-07 08:12 | 12.83637 | 74.81279 | 12225 ft | 261 kts | 43° |
| 2026-05-07 08:12 | 12.85128 | 74.82341 | 11790 ft | 262 kts | 32° |
| 2026-05-07 08:12 | 12.86691 | 74.83299 | 11388 ft | 261 kts | 32° |
| 2026-05-07 08:12 | 12.88241 | 74.84260 | 10937 ft | 260 kts | 32° |
| 2026-05-07 08:13 | 12.89787 | 74.85217 | 10475 ft | 258 kts | 32° |
| 2026-05-07 08:13 | 12.91317 | 74.86161 | 10048 ft | 254 kts | 32° |
| 2026-05-07 08:13 | 12.92825 | 74.87086 | 9597 ft | 251 kts | 32° |
| 2026-05-07 08:13 | 12.94319 | 74.88000 | 9113 ft | 250 kts | 32° |
| 2026-05-07 08:14 | 12.95807 | 74.88912 | 8631 ft | 248 kts | 32° |
| 2026-05-07 08:14 | 12.97284 | 74.89820 | 8158 ft | 247 kts | 32° |
| 2026-05-07 08:14 | 12.98750 | 74.90721 | 7693 ft | 245 kts | 32° |
| 2026-05-07 08:14 | 13.00210 | 74.91617 | 7227 ft | 244 kts | 32° |
| 2026-05-07 08:15 | 13.01661 | 74.92506 | 6775 ft | 242 kts | 32° |
| 2026-05-07 08:15 | 13.03102 | 74.93393 | 6332 ft | 241 kts | 32° |
| 2026-05-07 08:15 | 13.04537 | 74.94279 | 5857 ft | 240 kts | 32° |
| 2026-05-07 08:15 | 13.05960 | 74.95167 | 5382 ft | 239 kts | 32° |
| 2026-05-07 08:16 | 13.07376 | 74.96062 | 4922 ft | 239 kts | 32° |
| 2026-05-07 08:16 | 13.08780 | 74.96967 | 4444 ft | 238 kts | 32° |
| 2026-05-07 08:16 | 13.10018 | 74.98072 | 3923 ft | 238 kts | 54° |
| 2026-05-07 08:16 | 13.10496 | 74.99661 | 3424 ft | 237 kts | 93° |
| 2026-05-07 08:17 | 13.09893 | 75.01194 | 3066 ft | 235 kts | 134° |
| 2026-05-07 08:17 | 13.08481 | 75.01954 | 2989 ft | 232 kts | 175° |
| 2026-05-07 08:17 | 13.06914 | 75.01686 | 3043 ft | 232 kts | 202° |
| 2026-05-07 08:17 | 13.05416 | 75.01057 | 3040 ft | 232 kts | 204° |
| 2026-05-07 08:18 | 13.03963 | 75.00438 | 2880 ft | 220 kts | 204° |
| 2026-05-07 08:18 | 13.02602 | 74.99807 | 2604 ft | 209 kts | 214° |
| 2026-05-07 08:18 | 13.01582 | 74.98843 | 2344 ft | 193 kts | 234° |
| 2026-05-07 08:18 | 13.00879 | 74.97733 | 2108 ft | 177 kts | 241° |
| 2026-05-07 08:19 | 13.00288 | 74.96706 | 1901 ft | 158 kts | 240° |
| 2026-05-07 08:19 | 12.99745 | 74.95791 | 1721 ft | 146 kts | 240° |
| 2026-05-07 08:19 | 12.99211 | 74.94898 | 1531 ft | 147 kts | 240° |
| 2026-05-07 08:19 | 12.98686 | 74.94026 | 1338 ft | 142 kts | 240° |
| 2026-05-07 08:20 | 12.98172 | 74.93172 | 1146 ft | 140 kts | 240° |
| 2026-05-07 08:20 | 12.97661 | 74.92321 | 965 ft | 140 kts | 240° |
| 2026-05-07 08:20 | 12.97155 | 74.91468 | 795 ft | 140 kts | 239° |
| 2026-05-07 08:20 | 12.96648 | 74.90622 | 526 ft | 138 kts | 237° |
| 2026-05-07 08:21 | 12.96129 | 74.89787 | 418 ft | 140 kts | 239° |
| 2026-05-07 08:21 | 12.95625 | 74.88934 | 365 ft | 138 kts | 238° |
| 2026-05-07 08:21 | 12.95115 | 74.88129 | 330 ft | 139 kts | 227° |
| 2026-05-07 08:21 | 12.94529 | 74.87335 | 573 ft | 140 kts | 234° |
| 2026-05-07 08:22 | 12.93902 | 74.86478 | 779 ft | 170 kts | 233° |
| 2026-05-07 08:22 | 12.92946 | 74.85566 | 1325 ft | 212 kts | 208° |
| 2026-05-07 08:22 | 12.91425 | 74.85393 | 1455 ft | 244 kts | 166° |
| 2026-05-07 08:22 | 12.90016 | 74.86484 | 1586 ft | 270 kts | 120° |
| 2026-05-07 08:23 | 12.89657 | 74.88423 | 1451 ft | 289 kts | 78° |
| 2026-05-07 08:23 | 12.90536 | 74.90157 | 1604 ft | 270 kts | 46° |
| 2026-05-07 08:23 | 12.91899 | 74.91381 | 1810 ft | 251 kts | 37° |
| 2026-05-07 08:23 | 12.93246 | 74.92439 | 1923 ft | 239 kts | 35° |
| 2026-05-07 08:24 | 12.94510 | 74.93396 | 2156 ft | 212 kts | 34° |
| 2026-05-07 08:24 | 12.95632 | 74.94238 | 2246 ft | 190 kts | 33° |
| 2026-05-07 08:24 | 12.96674 | 74.95004 | 2296 ft | 180 kts | 34° |
| 2026-05-07 08:24 | 12.97712 | 74.95678 | 2150 ft | 180 kts | 9° |
| 2026-05-07 08:25 | 12.98823 | 74.95373 | 1947 ft | 165 kts | 310° |
| 2026-05-07 08:25 | 12.99224 | 74.94313 | 1591 ft | 161 kts | 284° |
| 2026-05-07 08:25 | 12.99027 | 74.93215 | 1085 ft | 169 kts | 233° |
| 2026-05-07 08:25 | 12.98047 | 74.92539 | 682 ft | 168 kts | 214° |
| 2026-05-07 08:26 | 12.96645 | 74.90573 | 680 ft | 182 kts | 230° |
| 2026-05-07 08:26 | 12.95985 | 74.89562 | 378 ft | 160 kts | 240° |
| 2026-05-07 08:26 | 12.95465 | 74.88671 | 324 ft | 131 kts | 238° |
| 2026-05-07 08:27 | 12.95074 | 74.88031 | 326 ft | 61 kts | 238° |
| 2026-05-07 08:27 | 12.94918 | 74.87775 | 324 ft | 20 kts | 238° |
| 2026-05-07 08:27 | 12.94897 | 74.87647 | 324 ft | 19 kts | 320° |
| 2026-05-07 08:27 | 12.94977 | 74.87599 | 326 ft | 0 kts | 326° |
| 2026-05-07 08:29 | 12.94980 | 74.87597 | 326 ft | 5 kts | 326° |
| 2026-05-07 08:29 | 12.95041 | 74.87546 | 326 ft | 10 kts | 292° |
| 2026-05-07 08:29 | 12.95050 | 74.87500 | 324 ft | 5 kts | 326° |
| 2026-05-07 08:30 | 12.95070 | 74.87489 | 324 ft | 1 kts | 328° |
| 2026-05-07 08:30 | 12.95072 | 74.87488 | 324 ft | 0 kts | 328° |
| 2026-05-07 08:32 | 12.95077 | 74.87485 | 326 ft | 0 kts | 329° |